Time,TemperatureF,DewpointF,PressureIn,WindDirection,WindDirectionDegrees,WindSpeedMPH,WindSpeedGustMPH,Humidity,HourlyPrecipIn,Conditions,Clouds,dailyrainin,SoftwareType,DateUTC
2013-06-11 00:02:00,72.3,66.5,30.02,NNE,24,12.0,15.0,82,0.00,,,0.00,VWS V14.01,2013-06-11 10:02:00,
2013-06-11 00:07:00,72.3,66.5,30.02,NNE,14,8.0,8.0,82,0.00,,,0.00,VWS V14.01,2013-06-11 10:07:00,
2013-06-11 00:12:00,72.3,66.5,30.02,NNE,33,9.0,17.0,82,0.00,,,0.00,VWS V14.01,2013-06-11 10:12:00,
2013-06-11 00:17:00,72.2,66.4,30.02,NE,40,10.0,10.0,82,0.00,,,0.00,VWS V14.01,2013-06-11 10:17:00,
2013-06-11 00:22:00,72.2,66.4,30.02,NNE,14,12.0,15.0,82,0.00,,,0.00,VWS V14.01,2013-06-11 10:22:00,
2013-06-11 00:27:00,72.2,66.1,30.02,NW,324,11.0,11.0,81,0.00,,,0.00,VWS V14.01,2013-06-11 10:27:00,
2013-06-11 00:32:00,72.2,66.1,30.02,NNE,21,6.0,6.0,81,0.00,,,0.00,VWS V14.01,2013-06-11 10:32:00,
2013-06-11 00:37:00,72.2,66.1,30.01,NNE,30,7.0,7.0,81,0.00,,,0.00,VWS V14.01,2013-06-11 10:37:00,
2013-06-11 00:42:00,72.2,66.1,30.01,North,6,10.0,10.0,81,0.00,,,0.00,VWS V14.01,2013-06-11 10:42:00,
2013-06-11 00:47:00,72.2,66.1,30.01,NNW,346,17.0,17.0,81,0.00,,,0.00,VWS V14.01,2013-06-11 10:47:00,
2013-06-11 00:52:00,72.3,65.8,30.00,North,7,16.0,16.0,80,0.00,,,0.00,VWS V14.01,2013-06-11 10:52:00,
2013-06-11 00:58:00,72.3,65.8,30.01,North,357,13.0,13.0,80,0.00,,,0.00,VWS V14.01,2013-06-11 10:58:00,
2013-06-11 01:03:00,72.4,65.5,30.00,North,349,14.0,14.0,79,0.00,,,0.00,VWS V14.01,2013-06-11 11:03:00,
2013-06-11 01:08:00,72.5,65.6,30.00,North,9,15.0,16.0,79,0.00,,,0.00,VWS V14.01,2013-06-11 11:08:00,
2013-06-11 01:13:00,72.6,65.7,30.00,NNE,30,5.0,10.0,79,0.00,,,0.00,VWS V14.01,2013-06-11 11:13:00,
2013-06-11 01:18:00,72.6,65.7,30.00,NNE,30,11.0,11.0,79,0.00,,,0.00,VWS V14.01,2013-06-11 11:18:00,
2013-06-11 01:23:00,72.5,66.3,30.00,NNE,26,9.0,17.0,81,0.00,,,0.00,VWS V14.01,2013-06-11 11:23:00,
2013-06-11 01:28:00,72.4,66.2,30.00,ENE,67,10.0,12.0,81,0.00,,,0.00,VWS V14.01,2013-06-11 11:28:00,
2013-06-11 01:33:00,72.3,66.5,30.00,NNE,19,9.0,13.0,82,0.00,,,0.00,VWS V14.01,2013-06-11 11:33:00,
2013-06-11 01:38:00,72.2,66.1,30.00,NNE,26,5.0,5.0,81,0.00,,,0.00,VWS V14.01,2013-06-11 11:38:00,
2013-06-11 01:43:00,72.3,65.8,29.99,NE,40,5.0,8.0,80,0.00,,,0.00,VWS V14.01,2013-06-11 11:43:00,
2013-06-11 01:48:00,72.5,65.3,29.99,NNE,33,6.0,6.0,78,0.00,,,0.00,VWS V14.01,2013-06-11 11:48:00,
2013-06-11 01:53:00,72.6,65.3,29.99,NE,51,15.0,16.0,78,0.00,,,0.00,VWS V14.01,2013-06-11 11:53:00,
2013-06-11 01:58:00,72.8,65.2,29.99,NNE,33,12.0,16.0,77,0.00,,,0.00,VWS V14.01,2013-06-11 11:58:00,
2013-06-11 02:03:00,72.8,65.9,29.99,NE,42,8.0,13.0,79,0.00,,,0.00,VWS V14.01,2013-06-11 12:03:00,
2013-06-11 02:09:00,72.7,66.5,29.99,ENE,68,3.0,3.0,81,0.00,,,0.00,VWS V14.01,2013-06-11 12:09:00,
2013-06-11 02:14:00,72.4,67.3,30.00,SE,124,11.0,13.0,84,0.00,,,0.00,VWS V14.01,2013-06-11 12:14:00,
2013-06-11 02:19:00,71.6,67.9,30.00,ENE,57,7.0,8.0,88,0.00,,,0.00,VWS V14.01,2013-06-11 12:19:00,
2013-06-11 02:24:00,71.0,67.6,30.00,NE,42,6.0,8.0,89,0.00,,,0.00,VWS V14.01,2013-06-11 12:24:00,
2013-06-11 02:29:00,70.8,67.4,30.00,NNE,28,9.0,10.0,89,0.00,,,0.00,VWS V14.01,2013-06-11 12:29:00,
2013-06-11 02:34:00,70.7,67.3,29.99,NE,44,3.0,7.0,89,0.00,,,0.00,VWS V14.01,2013-06-11 12:34:00,
2013-06-11 02:39:00,70.8,67.1,29.99,NE,35,12.0,12.0,88,0.00,,,0.00,VWS V14.01,2013-06-11 12:39:00,
2013-06-11 02:44:00,70.9,66.8,29.99,North,359,4.0,5.0,87,0.00,,,0.00,VWS V14.01,2013-06-11 12:44:00,
2013-06-11 02:49:00,71.0,66.6,29.99,NNE,32,9.0,9.0,86,0.00,,,0.00,VWS V14.01,2013-06-11 12:49:00,
2013-06-11 02:54:00,71.2,66.5,29.99,NNW,341,6.0,6.0,85,0.00,,,0.00,VWS V14.01,2013-06-11 12:54:00,
2013-06-11 02:59:00,71.4,66.7,29.99,NE,51,8.0,8.0,85,0.00,,,0.00,VWS V14.01,2013-06-11 12:59:00,
2013-06-11 03:04:00,71.4,66.7,29.99,NNE,27,15.0,15.0,85,0.00,,,0.00,VWS V14.01,2013-06-11 13:04:00,
2013-06-11 03:09:00,71.5,66.8,29.99,North,360,7.0,7.0,85,0.00,,,0.00,VWS V14.01,2013-06-11 13:09:00,
2013-06-11 03:15:00,71.4,67.0,29.99,NNE,29,6.0,9.0,86,0.00,,,0.00,VWS V14.01,2013-06-11 13:15:00,
2013-06-11 03:20:00,71.3,67.2,29.99,NNE,22,12.0,15.0,87,0.00,,,0.00,VWS V14.01,2013-06-11 13:20:00,
2013-06-11 03:25:00,71.2,67.1,29.99,North,8,13.0,13.0,87,0.00,,,0.00,VWS V14.01,2013-06-11 13:25:00,
2013-06-11 03:30:00,71.2,67.5,29.99,NE,45,4.0,4.0,88,0.00,,,0.00,VWS V14.01,2013-06-11 13:30:00,
2013-06-11 03:35:00,71.1,67.4,29.99,NNE,21,19.0,19.0,88,0.00,,,0.00,VWS V14.01,2013-06-11 13:35:00,
2013-06-11 03:40:00,71.1,67.4,29.99,ENE,66,6.0,7.0,88,0.00,,,0.00,VWS V14.01,2013-06-11 13:40:00,
2013-06-11 03:45:00,71.1,67.4,29.98,NNE,12,8.0,9.0,88,0.00,,,0.00,VWS V14.01,2013-06-11 13:45:00,
2013-06-11 03:50:00,71.1,67.4,29.98,NNE,17,6.0,9.0,88,0.00,,,0.00,VWS V14.01,2013-06-11 13:50:00,
2013-06-11 03:55:00,71.1,67.4,29.99,NE,34,8.0,8.0,88,0.00,,,0.00,VWS V14.01,2013-06-11 13:55:00,
2013-06-11 04:00:00,71.0,67.6,29.98,NNE,14,9.0,10.0,89,0.00,,,0.00,VWS V14.01,2013-06-11 14:00:00,
2013-06-11 04:05:00,71.0,67.6,29.98,NNE,14,10.0,11.0,89,0.00,,,0.00,VWS V14.01,2013-06-11 14:05:00,
2013-06-11 04:10:00,70.9,67.5,29.99,NNE,25,6.0,6.0,89,0.00,,,0.00,VWS V14.01,2013-06-11 14:10:00,
2013-06-11 04:15:00,70.9,67.5,29.99,NNE,16,12.0,12.0,89,0.00,,,0.00,VWS V14.01,2013-06-11 14:15:00,
2013-06-11 04:20:00,70.9,67.5,29.99,NE,47,9.0,9.0,89,0.00,,,0.00,VWS V14.01,2013-06-11 14:20:00,
2013-06-11 04:26:00,70.9,67.5,29.99,NNE,28,9.0,10.0,89,0.00,,,0.00,VWS V14.01,2013-06-11 14:26:00,
2013-06-11 04:31:00,71.0,67.6,29.99,NNE,26,9.0,11.0,89,0.00,,,0.00,VWS V14.01,2013-06-11 14:31:00,
2013-06-11 04:36:00,70.9,67.5,29.99,East,88,8.0,13.0,89,0.00,,,0.00,VWS V14.01,2013-06-11 14:36:00,
2013-06-11 04:41:00,70.8,67.1,29.99,NNE,12,8.0,9.0,88,0.00,,,0.00,VWS V14.01,2013-06-11 14:41:00,
2013-06-11 04:46:00,70.7,67.0,29.99,NNE,28,9.0,10.0,88,0.00,,,0.00,VWS V14.01,2013-06-11 14:46:00,
2013-06-11 04:51:00,70.8,67.1,29.99,North,10,14.0,15.0,88,0.00,,,0.00,VWS V14.01,2013-06-11 14:51:00,
2013-06-11 04:56:00,70.9,67.5,29.99,NNE,15,10.0,10.0,89,0.00,,,0.00,VWS V14.01,2013-06-11 14:56:00,
2013-06-11 05:01:00,71.0,67.6,29.99,NE,42,11.0,14.0,89,0.00,,,0.00,VWS V14.01,2013-06-11 15:01:00,
2013-06-11 05:06:00,71.0,67.6,29.99,North,350,10.0,13.0,89,0.00,,,0.00,VWS V14.01,2013-06-11 15:06:00,
2013-06-11 05:11:00,71.1,67.7,29.99,NE,40,11.0,11.0,89,0.00,,,0.00,VWS V14.01,2013-06-11 15:11:00,
2013-06-11 05:16:00,71.1,67.7,29.99,NNE,26,13.0,16.0,89,0.00,,,0.00,VWS V14.01,2013-06-11 15:16:00,
2013-06-11 05:21:00,71.1,67.7,29.99,NE,45,14.0,14.0,89,0.00,,,0.00,VWS V14.01,2013-06-11 15:21:00,
2013-06-11 05:26:00,71.2,67.8,29.99,North,356,8.0,8.0,89,0.00,,,0.00,VWS V14.01,2013-06-11 15:26:00,
2013-06-11 05:31:00,71.2,67.8,29.99,NNE,31,5.0,7.0,89,0.00,,,0.00,VWS V14.01,2013-06-11 15:31:00,
2013-06-11 05:36:00,71.2,67.8,29.99,NNE,13,7.0,7.0,89,0.00,,,0.00,VWS V14.01,2013-06-11 15:36:00,
2013-06-11 05:42:00,71.3,67.9,29.99,ENE,62,3.0,5.0,89,0.00,,,0.00,VWS V14.01,2013-06-11 15:42:00,
2013-06-11 05:47:00,71.4,68.0,30.00,NE,53,9.0,12.0,89,0.00,,,0.00,VWS V14.01,2013-06-11 15:47:00,
2013-06-11 05:52:00,71.3,67.9,30.00,NNE,16,12.0,14.0,89,0.00,,,0.00,VWS V14.01,2013-06-11 15:52:00,
2013-06-11 05:57:00,71.3,67.9,30.00,NNE,28,7.0,7.0,89,0.00,,,0.00,VWS V14.01,2013-06-11 15:57:00,
2013-06-11 06:02:00,71.2,67.8,30.00,ENE,64,7.0,9.0,89,0.00,,,0.00,VWS V14.01,2013-06-11 16:02:00,
2013-06-11 06:07:00,71.2,67.8,30.00,NE,45,6.0,6.0,89,0.00,,,0.00,VWS V14.01,2013-06-11 16:07:00,
2013-06-11 06:12:00,71.2,67.8,30.00,NE,47,4.0,6.0,89,0.00,,,0.00,VWS V14.01,2013-06-11 16:12:00,
2013-06-11 06:17:00,71.1,67.7,30.01,NE,35,10.0,10.0,89,0.00,,,0.00,VWS V14.01,2013-06-11 16:17:00,
2013-06-11 06:22:00,71.1,67.7,30.01,NE,35,5.0,6.0,89,0.00,,,0.00,VWS V14.01,2013-06-11 16:22:00,
2013-06-11 06:27:00,71.1,67.4,30.01,NNE,23,10.0,11.0,88,0.00,,,0.00,VWS V14.01,2013-06-11 16:27:00,
2013-06-11 06:32:00,71.2,67.5,30.01,NNE,28,7.0,9.0,88,0.00,,,0.00,VWS V14.01,2013-06-11 16:32:00,
2013-06-11 06:37:00,71.2,67.5,30.01,NNE,21,6.0,7.0,88,0.00,,,0.00,VWS V14.01,2013-06-11 16:37:00,
2013-06-11 06:42:00,71.3,67.6,30.01,East,81,7.0,9.0,88,0.00,,,0.00,VWS V14.01,2013-06-11 16:42:00,
2013-06-11 06:47:00,71.3,67.6,30.02,NE,52,5.0,9.0,88,0.00,,,0.00,VWS V14.01,2013-06-11 16:47:00,
2013-06-11 06:52:00,71.3,67.6,30.02,NE,51,9.0,10.0,88,0.00,,,0.00,VWS V14.01,2013-06-11 16:52:00,
2013-06-11 06:58:00,71.2,67.1,30.02,NE,42,8.0,9.0,87,0.00,,,0.00,VWS V14.01,2013-06-11 16:58:00,
2013-06-11 07:03:00,71.2,66.8,30.02,ENE,65,7.0,10.0,86,0.00,,,0.00,VWS V14.01,2013-06-11 17:03:00,
2013-06-11 07:08:00,71.2,66.5,30.02,NNE,12,12.0,12.0,85,0.00,,,0.00,VWS V14.01,2013-06-11 17:08:00,
2013-06-11 07:13:00,71.3,66.6,30.02,NE,43,5.0,5.0,85,0.00,,,0.00,VWS V14.01,2013-06-11 17:13:00,
2013-06-11 07:18:00,71.3,66.2,30.02,North,8,8.0,9.0,84,0.00,,,0.00,VWS V14.01,2013-06-11 17:18:00,
2013-06-11 07:23:00,71.4,66.0,30.02,NE,42,5.0,6.0,83,0.00,,,0.00,VWS V14.01,2013-06-11 17:23:00,
2013-06-11 07:28:00,71.5,66.1,30.02,NNE,16,7.0,7.0,83,0.00,,,0.00,VWS V14.01,2013-06-11 17:28:00,
2013-06-11 07:33:00,71.6,66.2,30.02,North,1,10.0,10.0,83,0.00,,,0.00,VWS V14.01,2013-06-11 17:33:00,
2013-06-11 07:38:00,71.7,66.3,30.02,NE,50,6.0,8.0,83,0.00,,,0.00,VWS V14.01,2013-06-11 17:38:00,
2013-06-11 07:43:00,71.8,66.4,30.02,NE,51,6.0,9.0,83,0.00,,,0.00,VWS V14.01,2013-06-11 17:43:00,
2013-06-11 07:48:00,72.0,66.2,30.02,NNE,21,12.0,12.0,82,0.00,,,0.00,VWS V14.01,2013-06-11 17:48:00,
2013-06-11 07:53:00,72.2,66.1,30.02,NNE,24,6.0,8.0,81,0.00,,,0.00,VWS V14.01,2013-06-11 17:53:00,
2013-06-11 07:58:00,72.3,66.2,30.02,NE,50,10.0,13.0,81,0.00,,,0.00,VWS V14.01,2013-06-11 17:58:00,
2013-06-11 08:03:00,72.4,66.6,30.02,NNE,31,14.0,18.0,82,0.00,,,0.00,VWS V14.01,2013-06-11 18:03:00,
2013-06-11 08:09:00,72.5,66.7,30.01,NNE,12,8.0,8.0,82,0.00,,,0.00,VWS V14.01,2013-06-11 18:09:00,
2013-06-11 08:14:00,72.8,67.0,30.02,East,94,7.0,7.0,82,0.00,,,0.00,VWS V14.01,2013-06-11 18:14:00,
2013-06-11 08:19:00,73.5,67.7,30.02,NNE,28,4.0,4.0,82,0.00,,,0.00,VWS V14.01,2013-06-11 18:19:00,
2013-06-11 08:24:00,73.6,67.4,30.02,NNE,25,10.0,10.0,81,0.00,,,0.00,VWS V14.01,2013-06-11 18:24:00,
2013-06-11 08:29:00,73.9,67.7,30.03,ENE,59,9.0,9.0,81,0.00,,,0.00,VWS V14.01,2013-06-11 18:29:00,
2013-06-11 08:34:00,74.3,67.0,30.03,ENE,57,9.0,14.0,78,0.00,,,0.00,VWS V14.01,2013-06-11 18:34:00,
2013-06-11 08:39:00,74.5,66.8,30.03,NE,54,6.0,10.0,77,0.00,,,0.00,VWS V14.01,2013-06-11 18:39:00,
2013-06-11 08:44:00,74.6,66.9,30.03,NE,44,7.0,7.0,77,0.00,,,0.00,VWS V14.01,2013-06-11 18:44:00,
2013-06-11 08:49:00,74.7,67.4,30.02,ENE,66,5.0,8.0,78,0.00,,,0.00,VWS V14.01,2013-06-11 18:49:00,
2013-06-11 08:54:00,74.9,66.8,30.03,ENE,71,5.0,8.0,76,0.00,,,0.00,VWS V14.01,2013-06-11 18:54:00,
2013-06-11 09:00:00,75.2,67.5,30.02,NNE,28,8.0,11.0,77,0.00,,,0.00,VWS V14.01,2013-06-11 19:00:00,
2013-06-11 09:05:00,75.5,66.2,30.02,NE,56,8.0,8.0,73,0.00,,,0.00,VWS V14.01,2013-06-11 19:05:00,
2013-06-11 09:10:00,75.6,66.3,30.02,NE,51,13.0,13.0,73,0.00,,,0.00,VWS V14.01,2013-06-11 19:10:00,
2013-06-11 09:15:00,75.8,66.9,30.02,ENE,69,12.0,14.0,74,0.00,,,0.00,VWS V14.01,2013-06-11 19:15:00,
2013-06-11 09:20:00,75.9,67.0,30.01,NE,47,9.0,9.0,74,0.00,,,0.00,VWS V14.01,2013-06-11 19:20:00,
2013-06-11 09:25:00,76.2,67.7,30.01,NE,54,9.0,13.0,75,0.00,,,0.00,VWS V14.01,2013-06-11 19:25:00,
2013-06-11 09:30:00,76.2,67.7,30.01,ENE,57,9.0,9.0,75,0.00,,,0.00,VWS V14.01,2013-06-11 19:30:00,
2013-06-11 09:35:00,75.8,67.3,30.01,ESE,103,12.0,12.0,75,0.00,,,0.00,VWS V14.01,2013-06-11 19:35:00,
2013-06-11 09:40:00,75.6,67.1,30.01,ENE,62,9.0,11.0,75,0.00,,,0.00,VWS V14.01,2013-06-11 19:40:00,
2013-06-11 09:45:00,76.2,67.3,30.01,ENE,62,13.0,14.0,74,0.00,,,0.00,VWS V14.01,2013-06-11 19:45:00,
2013-06-11 09:50:00,76.4,65.9,30.01,East,96,16.0,16.0,70,0.00,,,0.00,VWS V14.01,2013-06-11 19:50:00,
2013-06-11 09:55:00,76.4,66.7,30.01,ENE,71,7.0,11.0,72,0.00,,,0.00,VWS V14.01,2013-06-11 19:55:00,
2013-06-11 10:00:00,77.1,65.7,30.01,East,88,11.0,14.0,68,0.00,,,0.00,VWS V14.01,2013-06-11 20:00:00,
2013-06-11 10:05:00,77.1,67.0,30.01,East,93,9.0,13.0,71,0.00,,,0.00,VWS V14.01,2013-06-11 20:05:00,
2013-06-11 10:10:00,77.2,66.2,30.01,NE,47,12.0,14.0,69,0.00,,,0.00,VWS V14.01,2013-06-11 20:10:00,
2013-06-11 10:16:00,77.2,66.7,30.01,East,94,12.0,12.0,70,0.00,,,0.00,VWS V14.01,2013-06-11 20:16:00,
2013-06-11 10:21:00,77.3,67.2,30.00,ENE,78,9.0,11.0,71,0.00,,,0.00,VWS V14.01,2013-06-11 20:21:00,
2013-06-11 10:26:00,77.8,66.8,30.01,East,87,12.0,14.0,69,0.00,,,0.00,VWS V14.01,2013-06-11 20:26:00,
2013-06-11 10:31:00,77.8,66.0,30.00,East,99,17.0,17.0,67,0.00,,,0.00,VWS V14.01,2013-06-11 20:31:00,
2013-06-11 10:36:00,78.0,66.6,30.00,ENE,60,10.0,10.0,68,0.00,,,0.00,VWS V14.01,2013-06-11 20:36:00,
2013-06-11 10:41:00,77.7,66.7,30.00,ESE,110,19.0,21.0,69,0.00,,,0.00,VWS V14.01,2013-06-11 20:41:00,
2013-06-11 10:46:00,78.6,67.6,30.00,East,85,16.0,23.0,69,0.00,,,0.00,VWS V14.01,2013-06-11 20:46:00,
2013-06-11 10:51:00,77.9,66.9,30.00,ESE,109,14.0,17.0,69,0.00,,,0.00,VWS V14.01,2013-06-11 20:51:00,
2013-06-11 10:56:00,77.6,67.1,30.00,ENE,67,16.0,17.0,70,0.00,,,0.00,VWS V14.01,2013-06-11 20:56:00,
2013-06-11 11:01:00,77.3,66.8,30.00,NE,49,16.0,16.0,70,0.00,,,0.00,VWS V14.01,2013-06-11 21:01:00,
2013-06-11 11:06:00,77.2,67.1,30.00,NNE,12,13.0,13.0,71,0.00,,,0.00,VWS V14.01,2013-06-11 21:06:00,
2013-06-11 11:11:00,77.5,67.4,30.00,NNE,21,12.0,13.0,71,0.00,,,0.00,VWS V14.01,2013-06-11 21:11:00,
2013-06-11 11:16:00,78.8,68.2,29.99,NE,52,14.0,14.0,70,0.00,,,0.00,VWS V14.01,2013-06-11 21:16:00,
2013-06-11 11:22:00,78.6,67.2,29.99,East,95,9.0,11.0,68,0.00,,,0.00,VWS V14.01,2013-06-11 21:22:00,
2013-06-11 11:27:00,78.9,67.9,29.99,East,87,11.0,14.0,69,0.00,,,0.00,VWS V14.01,2013-06-11 21:27:00,
2013-06-11 11:32:00,78.9,66.6,29.99,NE,52,11.0,14.0,66,0.00,,,0.00,VWS V14.01,2013-06-11 21:32:00,
2013-06-11 11:37:00,78.7,67.7,29.99,NE,41,15.0,15.0,69,0.00,,,0.00,VWS V14.01,2013-06-11 21:37:00,
2013-06-11 11:42:00,78.3,68.1,29.99,ENE,77,8.0,9.0,71,0.00,,,0.00,VWS V14.01,2013-06-11 21:42:00,
2013-06-11 11:47:00,78.0,67.8,29.99,ENE,71,14.0,15.0,71,0.00,,,0.00,VWS V14.01,2013-06-11 21:47:00,
2013-06-11 11:52:00,78.7,68.9,29.99,East,89,14.0,20.0,72,0.00,,,0.00,VWS V14.01,2013-06-11 21:52:00,
2013-06-11 11:57:00,77.8,68.1,29.99,East,93,11.0,15.0,72,0.00,,,0.00,VWS V14.01,2013-06-11 21:57:00,
2013-06-11 12:02:00,77.4,68.5,29.99,NE,36,17.0,18.0,74,0.00,,,0.00,VWS V14.01,2013-06-11 22:02:00,
2013-06-11 12:07:00,76.9,68.0,29.99,NE,42,13.0,13.0,74,0.00,,,0.00,VWS V14.01,2013-06-11 22:07:00,
2013-06-11 12:12:00,76.7,68.2,29.99,NE,34,10.0,12.0,75,0.00,,,0.00,VWS V14.01,2013-06-11 22:12:00,
2013-06-11 12:17:00,76.3,68.2,29.98,North,8,17.0,17.0,76,0.00,,,0.00,VWS V14.01,2013-06-11 22:17:00,
2013-06-11 12:22:00,76.2,68.5,29.99,NE,56,14.0,15.0,77,0.00,,,0.00,VWS V14.01,2013-06-11 22:22:00,
2013-06-11 12:27:00,75.7,69.1,29.98,NE,51,10.0,13.0,80,0.00,,,0.00,VWS V14.01,2013-06-11 22:27:00,
2013-06-11 12:32:00,75.9,69.3,29.98,NE,41,9.0,11.0,80,0.00,,,0.00,VWS V14.01,2013-06-11 22:32:00,
2013-06-11 12:37:00,76.1,69.1,29.98,NE,53,5.0,8.0,79,0.00,,,0.00,VWS V14.01,2013-06-11 22:37:00,
2013-06-11 12:43:00,75.5,68.9,29.97,NE,39,2.0,3.0,80,0.00,,,0.00,VWS V14.01,2013-06-11 22:43:00,
2013-06-11 12:48:00,75.9,68.6,29.97,North,357,8.0,10.0,78,0.00,,,0.00,VWS V14.01,2013-06-11 22:48:00,
2013-06-11 12:53:00,75.8,68.5,29.97,North,359,17.0,17.0,78,0.00,,,0.00,VWS V14.01,2013-06-11 22:53:00,
2013-06-11 12:58:00,76.1,68.8,29.97,North,2,4.0,6.0,78,0.00,,,0.00,VWS V14.01,2013-06-11 22:58:00,
2013-06-11 13:03:00,76.1,68.0,29.97,NNE,27,2.0,2.0,76,0.00,,,0.00,VWS V14.01,2013-06-11 23:03:00,
2013-06-11 13:08:00,76.3,68.2,29.97,NNW,336,9.0,9.0,76,0.00,,,0.00,VWS V14.01,2013-06-11 23:08:00,
2013-06-11 13:13:00,76.9,68.0,29.96,North,9,13.0,13.0,74,0.00,,,0.00,VWS V14.01,2013-06-11 23:13:00,
2013-06-11 13:18:00,77.6,67.9,29.96,ENE,65,6.0,9.0,72,0.00,,,0.00,VWS V14.01,2013-06-11 23:18:00,
2013-06-11 13:23:00,78.3,68.1,29.96,NE,47,11.0,11.0,71,0.00,,,0.00,VWS V14.01,2013-06-11 23:23:00,
2013-06-11 13:28:00,78.5,68.3,29.96,NE,41,7.0,9.0,71,0.00,,,0.00,VWS V14.01,2013-06-11 23:28:00,
2013-06-11 13:33:00,79.1,68.1,29.96,NE,48,5.0,11.0,69,0.00,,,0.00,VWS V14.01,2013-06-11 23:33:00,
2013-06-11 13:38:00,79.0,68.0,29.96,NNE,21,12.0,13.0,69,0.00,,,0.00,VWS V14.01,2013-06-11 23:38:00,
2013-06-11 13:43:00,78.9,68.7,29.96,NNW,331,8.0,13.0,71,0.00,,,0.00,VWS V14.01,2013-06-11 23:43:00,
2013-06-11 13:48:00,78.7,68.1,29.96,East,83,16.0,16.0,70,0.00,,,0.00,VWS V14.01,2013-06-11 23:48:00,
2013-06-11 13:53:00,78.2,67.6,29.96,ENE,64,12.0,12.0,70,0.00,,,0.00,VWS V14.01,2013-06-11 23:53:00,
2013-06-11 13:58:00,78.2,68.4,29.96,NE,55,11.0,12.0,72,0.00,,,0.00,VWS V14.01,2013-06-11 23:58:00,
2013-06-11 14:03:00,77.9,68.2,29.96,ENE,67,9.0,9.0,72,0.00,,,0.00,VWS V14.01,2013-06-12 00:03:00,
2013-06-11 14:08:00,78.2,68.4,29.96,NNE,12,9.0,14.0,72,0.00,,,0.00,VWS V14.01,2013-06-12 00:08:00,
2013-06-11 14:13:00,77.7,68.8,29.96,ENE,61,7.0,7.0,74,0.00,,,0.00,VWS V14.01,2013-06-12 00:13:00,
2013-06-11 14:18:00,77.4,68.9,29.96,ENE,66,3.0,5.0,75,0.00,,,0.00,VWS V14.01,2013-06-12 00:18:00,
2013-06-11 14:23:00,77.2,67.9,29.96,NE,34,7.0,11.0,73,0.00,,,0.00,VWS V14.01,2013-06-12 00:23:00,
2013-06-11 14:29:00,77.1,68.2,29.96,NE,55,6.0,6.0,74,0.00,,,0.00,VWS V14.01,2013-06-12 00:29:00,
2013-06-11 14:34:00,76.7,68.6,29.96,East,89,10.0,11.0,76,0.00,,,0.00,VWS V14.01,2013-06-12 00:34:00,
2013-06-11 14:39:00,76.4,68.7,29.96,NE,49,11.0,12.0,77,0.00,,,0.00,VWS V14.01,2013-06-12 00:39:00,
2013-06-11 14:44:00,76.4,69.0,29.96,NE,55,10.0,10.0,78,0.00,,,0.00,VWS V14.01,2013-06-12 00:44:00,
2013-06-11 14:49:00,76.3,68.9,29.96,NNE,12,14.0,14.0,78,0.00,,,0.00,VWS V14.01,2013-06-12 00:49:00,
2013-06-11 14:54:00,76.4,68.7,29.96,NNE,26,12.0,12.0,77,0.00,,,0.00,VWS V14.01,2013-06-12 00:54:00,
2013-06-11 14:59:00,76.2,68.1,29.96,North,9,3.0,8.0,76,0.00,,,0.00,VWS V14.01,2013-06-12 00:59:00,
2013-06-11 15:04:00,76.6,68.1,29.96,NE,48,10.0,14.0,75,0.00,,,0.00,VWS V14.01,2013-06-12 01:04:00,
2013-06-11 15:09:00,76.8,67.9,29.96,NNE,19,14.0,15.0,74,0.00,,,0.00,VWS V14.01,2013-06-12 01:09:00,
2013-06-11 15:14:00,76.2,68.1,29.96,NE,56,8.0,11.0,76,0.00,,,0.00,VWS V14.01,2013-06-12 01:14:00,
2013-06-11 15:19:00,75.9,67.8,29.96,North,9,11.0,16.0,76,0.00,,,0.00,VWS V14.01,2013-06-12 01:19:00,
2013-06-11 15:24:00,75.8,67.7,29.96,NNE,31,4.0,9.0,76,0.00,,,0.00,VWS V14.01,2013-06-12 01:24:00,
2013-06-11 15:29:00,75.9,67.8,29.96,North,360,12.0,12.0,76,0.00,,,0.00,VWS V14.01,2013-06-12 01:29:00,
2013-06-11 15:34:00,75.9,67.4,29.95,North,357,8.0,12.0,75,0.00,,,0.00,VWS V14.01,2013-06-12 01:34:00,
2013-06-11 15:39:00,76.1,67.6,29.95,WSW,240,7.0,8.0,75,0.00,,,0.00,VWS V14.01,2013-06-12 01:39:00,
2013-06-11 15:44:00,76.4,67.5,29.95,NE,56,5.0,11.0,74,0.00,,,0.00,VWS V14.01,2013-06-12 01:44:00,
2013-06-11 15:49:00,76.3,67.8,29.95,NE,53,3.0,9.0,75,0.00,,,0.00,VWS V14.01,2013-06-12 01:49:00,
2013-06-11 15:54:00,76.1,68.0,29.95,NNE,23,5.0,5.0,76,0.00,,,0.00,VWS V14.01,2013-06-12 01:54:00,
2013-06-11 16:00:00,76.2,68.1,29.95,East,85,5.0,9.0,76,0.00,,,0.00,VWS V14.01,2013-06-12 02:00:00,
2013-06-11 16:05:00,76.2,67.7,29.95,NE,40,10.0,15.0,75,0.00,,,0.00,VWS V14.01,2013-06-12 02:05:00,
2013-06-11 16:10:00,75.8,68.1,29.94,NNW,327,17.0,17.0,77,0.00,,,0.00,VWS V14.01,2013-06-12 02:10:00,
2013-06-11 16:15:00,76.1,68.0,29.95,NE,39,6.0,10.0,76,0.00,,,0.00,VWS V14.01,2013-06-12 02:15:00,
2013-06-11 16:20:00,76.1,67.6,29.95,NNE,21,4.0,5.0,75,0.00,,,0.00,VWS V14.01,2013-06-12 02:20:00,
2013-06-11 16:25:00,75.9,67.4,29.95,North,354,8.0,9.0,75,0.00,,,0.00,VWS V14.01,2013-06-12 02:25:00,
2013-06-11 16:30:00,75.9,67.4,29.95,East,85,7.0,7.0,75,0.00,,,0.00,VWS V14.01,2013-06-12 02:30:00,
2013-06-11 16:35:00,75.7,67.6,29.95,NE,46,6.0,6.0,76,0.00,,,0.00,VWS V14.01,2013-06-12 02:35:00,
2013-06-11 16:40:00,75.6,67.5,29.95,NW,315,6.0,6.0,76,0.00,,,0.00,VWS V14.01,2013-06-12 02:40:00,
2013-06-11 16:45:00,75.7,67.2,29.95,North,7,13.0,15.0,75,0.00,,,0.00,VWS V14.01,2013-06-12 02:45:00,
2013-06-11 16:51:00,75.4,67.3,29.95,NE,43,4.0,7.0,76,0.00,,,0.00,VWS V14.01,2013-06-12 02:51:00,
2013-06-11 16:56:00,75.4,67.3,29.94,ENE,60,9.0,9.0,76,0.00,,,0.00,VWS V14.01,2013-06-12 02:56:00,
2013-06-11 17:01:00,75.3,67.2,29.95,ENE,59,10.0,10.0,76,0.00,,,0.00,VWS V14.01,2013-06-12 03:01:00,
2013-06-11 17:06:00,75.1,67.0,29.95,NNE,17,10.0,15.0,76,0.00,,,0.00,VWS V14.01,2013-06-12 03:06:00,
2013-06-11 17:11:00,75.1,67.0,29.95,NNE,21,9.0,11.0,76,0.00,,,0.00,VWS V14.01,2013-06-12 03:11:00,
2013-06-11 17:16:00,75.0,67.3,29.95,NNE,23,5.0,6.0,77,0.00,,,0.00,VWS V14.01,2013-06-12 03:16:00,
2013-06-11 17:21:00,75.0,67.3,29.96,NNE,32,13.0,13.0,77,0.00,,,0.00,VWS V14.01,2013-06-12 03:21:00,
2013-06-11 17:26:00,74.9,67.2,29.95,NW,326,11.0,11.0,77,0.00,,,0.00,VWS V14.01,2013-06-12 03:26:00,
2013-06-11 17:31:00,74.9,67.2,29.96,NNE,26,19.0,19.0,77,0.00,,,0.00,VWS V14.01,2013-06-12 03:31:00,
2013-06-11 17:36:00,74.9,67.2,29.96,ENE,61,6.0,10.0,77,0.00,,,0.00,VWS V14.01,2013-06-12 03:36:00,
2013-06-11 17:41:00,74.7,67.0,29.96,NNE,26,8.0,10.0,77,0.00,,,0.00,VWS V14.01,2013-06-12 03:41:00,
2013-06-11 17:46:00,74.5,67.2,29.96,ENE,60,9.0,9.0,78,0.00,,,0.00,VWS V14.01,2013-06-12 03:46:00,
2013-06-11 17:51:00,74.5,67.9,29.96,North,7,10.0,15.0,80,0.00,,,0.00,VWS V14.01,2013-06-12 03:51:00,
2013-06-11 17:57:00,74.1,68.6,29.96,NNE,14,10.0,11.0,83,0.00,,,0.00,VWS V14.01,2013-06-12 03:57:00,
2013-06-11 18:01:00,73.7,68.6,29.96,NNE,31,13.0,13.0,84,0.00,,,0.00,VWS V14.01,2013-06-12 04:01:00,
2013-06-11 18:02:00,73.5,68.7,29.97,NE,46,6.0,12.0,85,0.00,,,0.00,VWS V14.01,2013-06-12 04:02:00,
2013-06-11 18:03:00,73.5,68.7,29.96,NNE,23,9.0,11.0,85,0.00,,,0.00,VWS V14.01,2013-06-12 04:03:00,
2013-06-11 18:08:00,73.3,68.9,29.96,NE,47,8.0,10.0,86,0.00,,,0.00,VWS V14.01,2013-06-12 04:08:00,
2013-06-11 18:13:00,73.0,68.9,29.96,North,1,5.0,5.0,87,0.00,,,0.00,VWS V14.01,2013-06-12 04:13:00,
2013-06-11 18:18:00,72.9,69.1,29.96,NE,52,18.0,18.0,88,0.00,,,0.00,VWS V14.01,2013-06-12 04:18:00,
2013-06-11 18:23:00,72.8,69.4,29.97,ENE,78,7.0,13.0,89,0.00,,,0.00,VWS V14.01,2013-06-12 04:23:00,
2013-06-11 18:28:00,72.8,69.4,29.96,NE,45,12.0,13.0,89,0.00,,,0.00,VWS V14.01,2013-06-12 04:28:00,
2013-06-11 18:33:00,72.8,69.4,29.96,NE,51,4.0,5.0,89,0.00,,,0.00,VWS V14.01,2013-06-12 04:33:00,
2013-06-11 18:38:00,72.8,69.4,29.97,NNE,25,8.0,12.0,89,0.00,,,0.00,VWS V14.01,2013-06-12 04:38:00,
2013-06-11 18:43:00,72.7,69.3,29.97,NNE,18,13.0,13.0,89,0.00,,,0.00,VWS V14.01,2013-06-12 04:43:00,
2013-06-11 18:48:00,72.7,69.3,29.97,North,6,8.0,8.0,89,0.00,,,0.00,VWS V14.01,2013-06-12 04:48:00,
2013-06-11 18:53:00,72.7,68.9,29.97,NE,48,4.0,6.0,88,0.00,,,0.00,VWS V14.01,2013-06-12 04:53:00,
2013-06-11 18:58:00,72.6,68.8,29.97,NE,35,12.0,13.0,88,0.00,,,0.00,VWS V14.01,2013-06-12 04:58:00,
2013-06-11 19:03:00,72.4,68.7,29.97,NE,43,12.0,12.0,88,0.00,,,0.00,VWS V14.01,2013-06-12 05:03:00,
2013-06-11 19:08:00,72.3,68.6,29.98,NE,42,13.0,13.0,88,0.00,,,0.00,VWS V14.01,2013-06-12 05:08:00,
2013-06-11 19:14:00,72.3,68.6,29.98,NE,53,13.0,13.0,88,0.00,,,0.00,VWS V14.01,2013-06-12 05:14:00,
2013-06-11 19:19:00,72.2,68.1,29.98,ENE,66,12.0,12.0,87,0.00,,,0.00,VWS V14.01,2013-06-12 05:19:00,
2013-06-11 19:24:00,72.2,68.1,29.98,NE,37,6.0,9.0,87,0.00,,,0.00,VWS V14.01,2013-06-12 05:24:00,
2013-06-11 19:29:00,72.2,68.1,29.99,ENE,62,9.0,9.0,87,0.00,,,0.00,VWS V14.01,2013-06-12 05:29:00,
2013-06-11 19:34:00,72.2,68.1,29.99,NE,38,10.0,11.0,87,0.00,,,0.00,VWS V14.01,2013-06-12 05:34:00,
2013-06-11 19:39:00,72.2,68.1,29.99,NE,41,8.0,11.0,87,0.00,,,0.00,VWS V14.01,2013-06-12 05:39:00,
2013-06-11 19:44:00,72.2,68.1,29.99,NNE,25,2.0,2.0,87,0.00,,,0.00,VWS V14.01,2013-06-12 05:44:00,
2013-06-11 19:49:00,72.1,67.7,30.00,NE,42,11.0,14.0,86,0.00,,,0.00,VWS V14.01,2013-06-12 05:49:00,
2013-06-11 19:54:00,72.0,67.6,29.99,NE,50,9.0,10.0,86,0.00,,,0.00,VWS V14.01,2013-06-12 05:54:00,
2013-06-11 20:00:00,72.1,67.7,29.99,NE,54,8.0,11.0,86,0.00,,,0.00,VWS V14.01,2013-06-12 06:00:00,
2013-06-11 20:05:00,72.0,67.2,29.99,NE,54,7.0,11.0,85,0.00,,,0.00,VWS V14.01,2013-06-12 06:05:00,
2013-06-11 20:10:00,72.0,67.2,29.99,NNE,33,9.0,12.0,85,0.00,,,0.00,VWS V14.01,2013-06-12 06:10:00,
2013-06-11 20:15:00,71.9,67.2,29.99,NNE,21,1.0,3.0,85,0.00,,,0.00,VWS V14.01,2013-06-12 06:15:00,
2013-06-11 20:20:00,71.9,67.2,29.99,NE,40,3.0,3.0,85,0.00,,,0.00,VWS V14.01,2013-06-12 06:20:00,
2013-06-11 20:25:00,71.9,67.2,29.99,NNE,28,8.0,8.0,85,0.00,,,0.00,VWS V14.01,2013-06-12 06:25:00,
2013-06-11 20:30:00,72.1,67.0,29.99,North,3,4.0,7.0,84,0.00,,,0.00,VWS V14.01,2013-06-12 06:30:00,
2013-06-11 20:35:00,72.2,67.1,29.99,NE,50,8.0,8.0,84,0.00,,,0.00,VWS V14.01,2013-06-12 06:35:00,
2013-06-11 20:40:00,72.4,66.9,30.00,NNE,14,5.0,8.0,83,0.00,,,0.00,VWS V14.01,2013-06-12 06:40:00,
2013-06-11 20:45:00,72.5,67.1,30.00,North,350,6.0,10.0,83,0.00,,,0.00,VWS V14.01,2013-06-12 06:45:00,
2013-06-11 20:50:00,72.6,67.2,30.00,North,353,9.0,13.0,83,0.00,,,0.00,VWS V14.01,2013-06-12 06:50:00,
2013-06-11 20:55:00,72.8,67.0,30.00,NNE,19,11.0,14.0,82,0.00,,,0.00,VWS V14.01,2013-06-12 06:55:00,
2013-06-11 21:00:00,73.0,67.2,30.00,North,354,12.0,12.0,82,0.00,,,0.00,VWS V14.01,2013-06-12 07:00:00,
2013-06-11 21:06:00,73.0,67.2,30.00,NNE,22,7.0,10.0,82,0.00,,,0.00,VWS V14.01,2013-06-12 07:06:00,
2013-06-11 21:11:00,73.1,67.3,30.00,NNE,33,9.0,9.0,82,0.00,,,0.00,VWS V14.01,2013-06-12 07:11:00,
2013-06-11 21:16:00,72.9,67.1,30.00,NE,38,5.0,7.0,82,0.00,,,0.00,VWS V14.01,2013-06-12 07:16:00,
2013-06-11 21:21:00,72.7,66.5,30.00,NE,47,3.0,5.0,81,0.00,,,0.00,VWS V14.01,2013-06-12 07:21:00,
2013-06-11 21:26:00,72.6,66.8,30.01,NE,51,8.0,9.0,82,0.00,,,0.00,VWS V14.01,2013-06-12 07:26:00,
2013-06-11 21:31:00,72.5,66.7,30.01,NE,47,5.0,10.0,82,0.00,,,0.00,VWS V14.01,2013-06-12 07:31:00,
2013-06-11 21:36:00,72.4,66.6,30.01,East,82,2.0,5.0,82,0.00,,,0.00,VWS V14.01,2013-06-12 07:36:00,
2013-06-11 21:41:00,72.6,66.8,30.01,NE,52,2.0,2.0,82,0.00,,,0.00,VWS V14.01,2013-06-12 07:41:00,
2013-06-11 21:46:00,72.7,66.5,30.02,ENE,71,7.0,7.0,81,0.00,,,0.00,VWS V14.01,2013-06-12 07:46:00,
2013-06-11 21:51:00,72.8,66.6,30.02,NNE,21,15.0,15.0,81,0.00,,,0.00,VWS V14.01,2013-06-12 07:51:00,
2013-06-11 21:56:00,72.7,66.9,30.02,North,10,7.0,10.0,82,0.00,,,0.00,VWS V14.01,2013-06-12 07:56:00,
2013-06-11 22:01:00,72.7,66.9,30.02,NNE,22,17.0,18.0,82,0.00,,,0.00,VWS V14.01,2013-06-12 08:01:00,
2013-06-11 22:06:00,72.6,67.5,30.02,NNE,23,14.0,15.0,84,0.00,,,0.00,VWS V14.01,2013-06-12 08:06:00,
2013-06-11 22:12:00,72.4,67.3,30.02,NNE,17,9.0,9.0,84,0.00,,,0.00,VWS V14.01,2013-06-12 08:12:00,
2013-06-11 22:17:00,72.4,67.6,30.02,North,6,17.0,18.0,85,0.00,,,0.00,VWS V14.01,2013-06-12 08:17:00,
2013-06-11 22:22:00,72.3,67.5,30.02,NNE,30,15.0,20.0,85,0.00,,,0.00,VWS V14.01,2013-06-12 08:22:00,
2013-06-11 22:27:00,72.3,67.2,30.02,NNE,20,17.0,17.0,84,0.00,,,0.00,VWS V14.01,2013-06-12 08:27:00,
2013-06-11 22:32:00,72.3,67.2,30.02,NNE,22,15.0,15.0,84,0.00,,,0.00,VWS V14.01,2013-06-12 08:32:00,
2013-06-11 22:37:00,72.4,66.9,30.03,North,9,16.0,16.0,83,0.00,,,0.00,VWS V14.01,2013-06-12 08:37:00,
2013-06-11 22:42:00,72.4,66.6,30.02,NE,50,13.0,15.0,82,0.00,,,0.00,VWS V14.01,2013-06-12 08:42:00,
2013-06-11 22:47:00,72.5,66.7,30.02,NE,50,8.0,12.0,82,0.00,,,0.00,VWS V14.01,2013-06-12 08:47:00,
2013-06-11 22:52:00,72.6,66.4,30.02,NNE,24,11.0,11.0,81,0.00,,,0.00,VWS V14.01,2013-06-12 08:52:00,
2013-06-11 22:57:00,72.7,66.2,30.03,NNE,12,10.0,11.0,80,0.00,,,0.00,VWS V14.01,2013-06-12 08:57:00,
2013-06-11 23:03:00,72.7,66.2,30.03,NE,47,13.0,17.0,80,0.00,,,0.00,VWS V14.01,2013-06-12 09:03:00,
2013-06-11 23:08:00,72.6,66.4,30.03,NNE,32,10.0,10.0,81,0.00,,,0.00,VWS V14.01,2013-06-12 09:08:00,
2013-06-11 23:13:00,72.6,66.4,30.03,NE,44,9.0,9.0,81,0.00,,,0.00,VWS V14.01,2013-06-12 09:13:00,
2013-06-11 23:18:00,72.5,66.7,30.03,NE,50,12.0,14.0,82,0.00,,,0.00,VWS V14.01,2013-06-12 09:18:00,
2013-06-11 23:23:00,72.5,66.7,30.02,ENE,63,11.0,18.0,82,0.00,,,0.00,VWS V14.01,2013-06-12 09:23:00,
2013-06-11 23:28:00,72.4,66.9,30.02,NE,46,15.0,15.0,83,0.00,,,0.00,VWS V14.01,2013-06-12 09:28:00,
2013-06-11 23:33:00,72.2,66.8,30.02,NE,38,9.0,16.0,83,0.00,,,0.00,VWS V14.01,2013-06-12 09:33:00,
2013-06-11 23:38:00,72.3,66.5,30.02,NNE,33,7.0,9.0,82,0.00,,,0.00,VWS V14.01,2013-06-12 09:38:00,
2013-06-11 23:43:00,72.4,66.2,30.02,NE,48,11.0,14.0,81,0.00,,,0.00,VWS V14.01,2013-06-12 09:43:00,
2013-06-11 23:48:00,72.5,66.3,30.02,NE,44,8.0,11.0,81,0.00,,,0.00,VWS V14.01,2013-06-12 09:48:00,
2013-06-11 23:54:00,72.4,66.2,30.02,NE,42,13.0,13.0,81,0.00,,,0.00,VWS V14.01,2013-06-12 09:54:00,
2013-06-11 23:59:00,72.4,66.2,30.02,North,10,16.0,17.0,81,0.00,,,0.00,VWS V14.01,2013-06-12 09:59:00,